Time;durP1;ratioP1;P1;durP2;ratioP2;P2;SDS_P1;SDS_P2;PMS_P1;PMS_P2;Temp;Humidity;BMP_temperature;BMP_pressure;BME280_temperature;BME280_humidity;BME280_pressure;Samples;Min_cycle;Max_cycle;Signal;HPM_P1;HPM_P2
2022/10/03 00:00:11;;;;;;;17.60;3.40;;;10.80;99.90;;;;;;4972640;28;20386;-63
2022/10/03 00:03:08;;;;;;;16.73;2.58;;;10.80;99.90;;;;;;4972667;28;20188;-64
2022/10/03 00:06:14;;;;;;;19.70;2.35;;;10.80;99.90;;;;;;4972650;28;20046;-64
2022/10/03 00:09:01;;;;;;;9.90;3.13;;;10.80;99.90;;;;;;4972579;28;20437;-64
2022/10/03 00:11:47;;;;;;;16.95;3.35;;;10.90;99.90;;;;;;4972633;28;20429;-64
2022/10/03 00:14:24;;;;;;;13.95;2.33;;;10.90;99.90;;;;;;4990231;28;20472;-64
2022/10/03 00:17:04;;;;;;;13.40;3.08;;;10.90;99.90;;;;;;5011507;28;20065;-64
2022/10/03 00:20:00;;;;;;;14.77;2.05;;;11.00;99.90;;;;;;5011530;28;20077;-64
2022/10/03 00:22:46;;;;;;;8.73;1.98;;;11.00;99.90;;;;;;5011876;28;20034;-63
2022/10/03 00:25:35;;;;;;;14.63;2.30;;;11.10;99.90;;;;;;5015209;28;20054;-64
2022/10/03 00:28:35;;;;;;;11.95;1.85;;;11.10;99.90;;;;;;5015183;28;20042;-63
2022/10/03 00:31:08;;;;;;;14.00;2.20;;;11.00;99.90;;;;;;5022856;28;20602;-64
2022/10/03 00:34:03;;;;;;;14.57;3.08;;;11.10;99.90;;;;;;5053700;28;20040;-63
2022/10/03 00:36:42;;;;;;;12.75;2.20;;;11.10;99.90;;;;;;5054629;28;20040;-64
2022/10/03 00:39:35;;;;;;;16.88;2.30;;;11.10;99.90;;;;;;5055270;28;20474;-64
2022/10/03 00:42:20;;;;;;;11.63;2.97;;;11.20;99.90;;;;;;5054963;28;20055;-64
2022/10/03 00:45:20;;;;;;;11.73;2.88;;;11.20;99.90;;;;;;5054555;28;20044;-64
2022/10/03 00:48:04;;;;;;;11.00;2.00;;;11.30;99.90;;;;;;5054129;28;20048;-64
2022/10/03 00:50:40;;;;;;;12.65;2.25;;;11.30;99.90;;;;;;5054210;28;20419;-64
2022/10/03 00:53:31;;;;;;;17.20;3.38;;;11.40;99.90;;;;;;5054515;28;20068;-64
2022/10/03 00:56:12;;;;;;;10.82;1.92;;;11.40;99.90;;;;;;5054305;28;20051;-64
2022/10/03 00:58:52;;;;;;;12.27;2.00;;;11.50;99.90;;;;;;5054456;28;20511;-65
2022/10/03 01:01:29;;;;;;;8.25;1.83;;;11.40;99.90;;;;;;5054232;28;20053;-64
2022/10/03 01:04:10;;;;;;;19.70;2.88;;;11.60;99.90;;;;;;5054078;28;20041;-64
2022/10/03 01:07:17;;;;;;;11.93;1.80;;;11.60;99.90;;;;;;5057291;28;20055;-65
2022/10/03 01:10:31;;;;;;;11.52;2.88;;;11.70;99.90;;;;;;5054124;28;20594;-65
2022/10/03 01:13:31;;;;;;;12.55;1.67;;;11.70;99.90;;;;;;4971382;28;20055;-64
2022/10/03 01:16:11;;;;;;;17.02;3.08;;;11.70;99.90;;;;;;4975268;28;20070;-64
2022/10/03 01:18:56;;;;;;;14.82;2.10;;;11.60;99.90;;;;;;4974601;28;20051;-64
2022/10/03 01:21:33;;;;;;;11.63;2.58;;;11.60;99.90;;;;;;4973395;28;20592;-64
2022/10/03 01:24:01;;;;;;;15.90;2.40;;;11.70;99.90;;;;;;4957493;28;20430;-64
2022/10/03 01:26:54;;;;;;;17.88;2.65;;;11.70;99.90;;;;;;4975154;28;20039;-65
2022/10/03 01:32:41;;;;;;;11.90;2.45;;;11.70;99.90;;;;;;4974923;28;20402;-64
2022/10/03 01:35:34;;;;;;;11.18;2.10;;;11.60;99.90;;;;;;4974917;28;20429;-64
2022/10/03 01:38:28;;;;;;;14.00;1.83;;;11.60;99.90;;;;;;4974928;28;20047;-64
2022/10/03 01:41:01;;;;;;;12.88;2.78;;;11.60;99.90;;;;;;4936217;29;20122;-63
2022/10/03 01:43:37;;;;;;;10.68;1.88;;;11.60;99.90;;;;;;4944554;28;20078;-63
2022/10/03 01:46:27;;;;;;;10.57;1.73;;;11.60;99.90;;;;;;4955437;29;20055;-63
2022/10/03 01:49:14;;;;;;;18.63;2.95;;;11.50;99.90;;;;;;4968076;28;20484;-63
2022/10/03 01:51:58;;;;;;;8.55;1.60;;;11.50;99.90;;;;;;5011271;28;20038;-63
2022/10/03 01:54:43;;;;;;;19.17;3.33;;;11.50;99.90;;;;;;5012270;28;20037;-63
2022/10/03 01:57:45;;;;;;;12.52;2.33;;;11.40;99.90;;;;;;5013099;28;20070;-63
2022/10/03 02:00:17;;;;;;;11.40;2.63;;;11.30;99.90;;;;;;5013577;28;20572;-64
2022/10/03 02:02:43;;;;;;;13.45;2.55;;;11.30;99.90;;;;;;5013329;28;20070;-64
2022/10/03 02:05:21;;;;;;;17.40;2.38;;;11.20;99.90;;;;;;5013401;28;20100;-63
2022/10/03 02:08:08;;;;;;;12.48;2.83;;;11.20;99.90;;;;;;5013294;28;20057;-64
2022/10/03 02:10:54;;;;;;;9.85;1.90;;;11.20;99.90;;;;;;5013213;28;20069;-64
2022/10/03 02:13:50;;;;;;;13.25;3.25;;;11.20;99.90;;;;;;5013236;28;20072;-64
2022/10/03 02:16:39;;;;;;;12.13;2.72;;;11.20;99.90;;;;;;5013098;28;20048;-64
2022/10/03 02:19:22;;;;;;;13.60;2.47;;;11.10;99.90;;;;;;5073834;28;20032;-63
2022/10/03 02:21:53;;;;;;;14.18;2.10;;;11.10;99.90;;;;;;5074909;28;20041;-64
2022/10/03 02:24:27;;;;;;;10.98;2.33;;;11.10;99.90;;;;;;5074828;28;20028;-63
2022/10/03 02:27:35;;;;;;;13.35;1.80;;;11.10;99.90;;;;;;5073416;28;20052;-63
2022/10/03 02:30:04;;;;;;;8.40;2.10;;;11.20;99.90;;;;;;5074753;28;20071;-64
2022/10/03 02:32:53;;;;;;;13.50;2.03;;;11.10;99.90;;;;;;5074789;28;20079;-64
2022/10/03 02:35:47;;;;;;;13.10;2.33;;;11.20;99.90;;;;;;5074576;28;20039;-64
2022/10/03 02:38:31;;;;;;;9.57;1.50;;;11.20;99.90;;;;;;5074429;28;20047;-63
2022/10/03 02:41:15;;;;;;;11.93;2.17;;;11.20;99.90;;;;;;5074531;28;20040;-64
2022/10/03 02:44:05;;;;;;;17.35;3.38;;;11.30;99.90;;;;;;5074466;28;20091;-64
2022/10/03 02:46:43;;;;;;;10.15;2.38;;;11.30;99.90;;;;;;5073936;28;20441;-63
2022/10/03 02:49:30;;;;;;;11.68;1.88;;;11.30;99.90;;;;;;5073981;28;20040;-63
2022/10/03 02:52:17;;;;;;;14.65;1.92;;;11.30;99.90;;;;;;5073264;28;20051;-64
2022/10/03 02:55:09;;;;;;;12.38;1.98;;;11.30;99.90;;;;;;5074331;28;20044;-64
2022/10/03 02:58:00;;;;;;;10.60;2.30;;;11.40;99.90;;;;;;5074274;28;20063;-63
2022/10/03 03:01:03;;;;;;;10.35;2.05;;;11.40;99.90;;;;;;5074152;28;20037;-63
2022/10/03 03:03:53;;;;;;;10.27;1.92;;;11.40;99.90;;;;;;5074532;28;20080;-63
2022/10/03 03:06:44;;;;;;;13.98;2.38;;;11.50;99.90;;;;;;5074263;28;20040;-64
2022/10/03 03:09:16;;;;;;;;;;;11.40;99.90;;;;;;5074446;28;20052;-64
2022/10/03 03:11:58;;;;;;;12.32;2.22;;;11.40;99.90;;;;;;5073934;28;20016;-64
2022/10/03 03:14:42;;;;;;;11.45;2.40;;;11.50;99.90;;;;;;5072912;28;20122;-65
2022/10/03 03:17:29;;;;;;;8.98;1.70;;;11.60;99.90;;;;;;5073964;28;20062;-64
2022/10/03 03:20:25;;;;;;;10.63;1.80;;;11.50;99.90;;;;;;5073708;28;20547;-64
2022/10/03 03:23:24;;;;;;;9.23;1.98;;;11.50;99.90;;;;;;5073904;28;20115;-64
2022/10/03 03:26:06;;;;;;;11.95;1.65;;;11.50;99.90;;;;;;5073763;28;20040;-64
2022/10/03 03:29:02;;;;;;;14.43;2.95;;;11.50;99.90;;;;;;5073811;28;20422;-65
2022/10/03 03:31:53;;;;;;;9.63;1.88;;;11.60;99.90;;;;;;5073954;28;20048;-65
2022/10/03 03:34:30;;;;;;;9.73;1.65;;;11.60;99.90;;;;;;5073703;28;20165;-64
2022/10/03 03:37:05;;;;;;;7.15;1.52;;;11.70;99.90;;;;;;5073768;28;20040;-64
2022/10/03 03:39:48;;;;;;;11.88;2.30;;;11.60;99.90;;;;;;5073771;28;20029;-64
2022/10/03 03:42:33;;;;;;;14.10;1.73;;;11.50;99.90;;;;;;5073720;28;20424;-64
2022/10/03 03:45:07;;;;;;;8.90;1.52;;;11.60;99.90;;;;;;5073676;28;20044;-64
2022/10/03 03:47:53;;;;;;;11.70;1.88;;;11.60;99.90;;;;;;5073495;28;20048;-64
2022/10/03 03:50:34;;;;;;;18.80;3.42;;;11.60;99.90;;;;;;5073650;28;20036;-64
2022/10/03 03:53:23;;;;;;;9.38;1.70;;;11.70;99.90;;;;;;5072765;28;20033;-64
2022/10/03 03:56:05;;;;;;;13.35;2.15;;;11.60;99.90;;;;;;5073780;28;20043;-64
2022/10/03 03:58:38;;;;;;;8.77;2.10;;;11.60;99.90;;;;;;5075770;28;20441;-64
2022/10/03 04:01:47;;;;;;;9.10;1.90;;;11.70;99.90;;;;;;5077359;28;20506;-65
2022/10/03 04:04:32;;;;;;;9.80;1.90;;;11.70;99.90;;;;;;5035440;28;20175;-63
2022/10/03 04:07:32;;;;;;;12.82;1.90;;;11.70;99.90;;;;;;5035325;28;20495;-64
2022/10/03 04:10:19;;;;;;;8.30;2.20;;;11.80;99.90;;;;;;5018622;28;20466;-64
2022/10/03 04:13:12;;;;;;;8.93;1.80;;;11.70;99.90;;;;;;5035205;28;20120;-63
2022/10/03 04:16:09;;;;;;;9.75;2.05;;;11.80;99.90;;;;;;5035708;28;20045;-63
2022/10/03 04:19:18;;;;;;;7.90;1.40;;;11.70;99.90;;;;;;5035096;28;20041;-63
2022/10/03 04:22:28;;;;;;;14.15;2.67;;;11.70;99.90;;;;;;4956786;29;20059;-63
2022/10/03 04:25:07;;;;;;;9.25;1.73;;;11.80;99.90;;;;;;4956846;29;20055;-63
2022/10/03 04:28:01;;;;;;;14.17;2.30;;;11.80;99.90;;;;;;4956762;29;20439;-64
2022/10/03 04:30:36;;;;;;;9.85;2.10;;;11.70;99.90;;;;;;4918352;29;20047;-63
2022/10/03 04:33:09;;;;;;;9.32;1.98;;;11.80;99.90;;;;;;4918547;29;20041;-63
2022/10/03 04:36:14;;;;;;;10.52;2.55;;;11.80;99.90;;;;;;4918437;29;20087;-64
2022/10/03 04:39:00;;;;;;;11.40;1.77;;;11.80;99.90;;;;;;4918521;29;20127;-64
2022/10/03 04:41:48;;;;;;;13.20;2.10;;;11.80;99.90;;;;;;4936570;29;20052;-63
2022/10/03 04:44:42;;;;;;;14.30;2.70;;;11.80;99.90;;;;;;4937389;29;20439;-64
2022/10/03 04:47:31;;;;;;;15.63;2.35;;;11.70;99.90;;;;;;4937125;29;20058;-64
2022/10/03 04:50:11;;;;;;;15.75;2.20;;;11.80;99.90;;;;;;4944726;29;21562;-63
2022/10/03 04:52:50;;;;;;;10.20;1.98;;;11.70;99.90;;;;;;4953972;29;20187;-64
2022/10/03 04:55:46;;;;;;;7.38;2.10;;;11.80;99.90;;;;;;4954388;29;20047;-64
2022/10/03 04:58:39;;;;;;;9.52;2.55;;;11.80;99.90;;;;;;4989085;28;20134;-64
2022/10/03 05:01:22;;;;;;;13.63;3.10;;;11.70;99.90;;;;;;4995022;28;20057;-65
2022/10/03 05:04:16;;;;;;;6.78;1.90;;;11.60;99.90;;;;;;4994888;28;20046;-65
2022/10/03 05:06:53;;;;;;;25.00;2.58;;;11.60;99.90;;;;;;5013236;28;20049;-64
2022/10/03 05:09:19;;;;;;;10.77;2.13;;;11.60;99.90;;;;;;5055888;28;20052;-64
2022/10/03 05:12:05;;;;;;;11.77;2.63;;;11.50;99.90;;;;;;5056243;28;20037;-64
2022/10/03 05:15:08;;;;;;;11.90;2.25;;;11.40;99.90;;;;;;5056236;28;20047;-64
2022/10/03 05:17:41;;;;;;;10.18;2.17;;;11.40;99.90;;;;;;5034018;28;20085;-64
2022/10/03 05:20:19;;;;;;;9.63;2.30;;;11.40;99.90;;;;;;5044156;28;20045;-64
2022/10/03 05:22:59;;;;;;;10.05;1.98;;;11.20;99.90;;;;;;5053130;28;20519;-63
2022/10/03 05:25:45;;;;;;;;;;;11.30;99.90;;;;;;5053639;28;20491;-63
2022/10/03 05:28:14;;;;;;;22.17;2.88;;;11.10;99.90;;;;;;5053140;28;19924;-64
2022/10/03 05:30:48;;;;;;;;;;;11.10;99.90;;;;;;5054115;28;20094;-64
2022/10/03 05:33:39;;;;;;;8.15;1.60;;;11.00;99.90;;;;;;5053607;28;19943;-63
2022/10/03 05:36:23;;;;;;;8.07;1.58;;;11.10;99.90;;;;;;5053453;28;20056;-64
2022/10/03 05:39:16;;;;;;;8.10;2.03;;;10.90;99.90;;;;;;5037184;28;20056;-63
2022/10/03 05:41:52;;;;;;;8.82;1.95;;;10.90;99.90;;;;;;5053515;28;20053;-64
2022/10/03 05:44:29;;;;;;;8.10;2.95;;;11.00;99.90;;;;;;5053477;28;20040;-64
2022/10/03 05:47:43;;;;;;;7.18;2.22;;;10.90;99.90;;;;;;5053201;28;20506;-63
2022/10/03 05:50:09;;;;;;;15.10;2.85;;;11.00;99.90;;;;;;5052789;28;20534;-64
2022/10/03 05:53:02;;;;;;;12.18;2.53;;;10.90;99.90;;;;;;5052950;28;20083;-64
2022/10/03 05:55:51;;;;;;;11.93;2.50;;;10.80;99.90;;;;;;5054247;28;20051;-64
2022/10/03 05:58:53;;;;;;;12.68;2.05;;;10.80;99.90;;;;;;5055025;28;20053;-64
2022/10/03 06:01:39;;;;;;;8.15;2.65;;;10.70;99.90;;;;;;5056051;28;20045;-63
2022/10/03 06:04:41;;;;;;;9.77;2.42;;;10.70;99.90;;;;;;5055224;28;20044;-64
2022/10/03 06:07:27;;;;;;;5.60;2.03;;;10.70;99.90;;;;;;5072732;28;20438;-63
2022/10/03 06:10:25;;;;;;;9.75;2.10;;;10.60;99.90;;;;;;5072849;28;20045;-64
2022/10/03 06:13:14;;;;;;;8.65;2.30;;;10.60;99.90;;;;;;5072919;28;20036;-64
2022/10/03 06:16:00;;;;;;;9.35;2.70;;;10.60;99.90;;;;;;5032783;28;20053;-64
2022/10/03 06:19:05;;;;;;;9.90;2.47;;;10.60;99.90;;;;;;5032925;28;20180;-64
2022/10/03 06:21:40;;;;;;;9.15;2.17;;;10.60;99.90;;;;;;5032049;28;20137;-64
2022/10/03 06:24:43;;;;;;;8.35;2.00;;;10.70;99.90;;;;;;5032767;28;20095;-64
2022/10/03 06:27:39;;;;;;;11.43;2.13;;;10.70;99.90;;;;;;5032515;28;20057;-63
2022/10/03 06:30:50;;;;;;;7.72;1.90;;;10.60;99.90;;;;;;5032647;28;20054;-63
2022/10/03 06:33:53;;;;;;;9.40;2.47;;;10.70;99.90;;;;;;4973759;28;20067;-63
2022/10/03 06:36:54;;;;;;;17.38;3.15;;;10.70;99.90;;;;;;4973459;28;20270;-63
2022/10/03 06:39:43;;;;;;;6.68;1.98;;;10.70;99.90;;;;;;4973677;28;20051;-63
2022/10/03 06:42:16;;;;;;;13.90;3.25;;;10.70;99.90;;;;;;4968458;28;20126;-63
2022/10/03 06:45:17;;;;;;;5.43;1.83;;;10.90;99.90;;;;;;4954417;29;20055;-63
2022/10/03 06:47:58;;;;;;;9.65;2.70;;;10.90;99.90;;;;;;4954264;28;20101;-63
2022/10/03 06:50:48;;;;;;;7.97;1.45;;;10.90;99.90;;;;;;4954272;29;20065;-63
2022/10/03 06:53:19;;;;;;;9.48;1.90;;;11.00;99.90;;;;;;4967811;28;20051;-63
2022/10/03 06:56:03;;;;;;;10.82;1.85;;;11.10;99.90;;;;;;4973505;28;20054;-63
2022/10/03 06:59:00;;;;;;;10.18;2.03;;;11.10;99.90;;;;;;4973092;28;20142;-63
2022/10/03 07:01:53;;;;;;;12.25;1.88;;;11.20;99.90;;;;;;4973373;28;20038;-63
2022/10/03 07:04:49;;;;;;;10.25;2.22;;;11.30;99.90;;;;;;4973106;28;20125;-63
2022/10/03 07:07:44;;;;;;;11.38;3.25;;;11.50;99.90;;;;;;4973145;28;20458;-63
2022/10/03 07:10:10;;;;;;;15.40;3.88;;;11.60;99.90;;;;;;5039206;28;20060;-63
2022/10/03 07:12:56;;;;;;;8.50;2.50;;;12.00;99.90;;;;;;5053997;28;20471;-63
2022/10/03 07:15:39;;;;;;;6.45;1.60;;;12.30;99.90;;;;;;5073485;28;20441;-63
2022/10/03 07:18:25;;;;;;;11.68;1.90;;;12.60;99.90;;;;;;5073865;28;20054;-63
2022/10/03 07:21:32;;;;;;;7.05;2.05;;;13.20;99.90;;;;;;5073872;28;20055;-63
2022/10/03 07:24:12;;;;;;;9.30;2.67;;;13.70;99.90;;;;;;5031756;28;20046;-63
2022/10/03 07:27:18;;;;;;;10.23;2.75;;;14.20;99.90;;;;;;5031570;28;20041;-63
2022/10/03 07:29:58;;;;;;;8.70;1.70;;;14.70;99.90;;;;;;5031737;28;20184;-63
2022/10/03 07:32:52;;;;;;;8.57;1.70;;;15.10;99.90;;;;;;5031406;28;20668;-63
2022/10/03 07:41:27;;;;;;;9.45;1.63;;;16.10;99.90;;;;;;5031616;28;20049;-63
2022/10/03 07:44:21;;;;;;;11.65;2.03;;;16.30;99.90;;;;;;5031624;28;20037;-62
2022/10/03 07:46:56;;;;;;;7.03;1.77;;;16.50;99.90;;;;;;5031398;28;20463;-63
2022/10/03 07:49:56;;;;;;;8.02;1.80;;;16.80;99.90;;;;;;5031618;28;20056;-64
2022/10/03 07:52:34;;;;;;;11.95;2.05;;;17.10;99.90;;;;;;5031152;28;20044;-64
2022/10/03 07:55:24;;;;;;;6.00;1.50;;;17.30;99.90;;;;;;5057194;28;20080;-63
2022/10/03 07:58:29;;;;;;;7.68;1.27;;;17.50;99.90;;;;;;5073282;28;20131;-63
2022/10/03 08:01:06;;;;;;;9.13;1.33;;;17.80;99.90;;;;;;5031395;28;20180;-63
2022/10/03 08:04:12;;;;;;;7.43;2.33;;;18.20;99.90;;;;;;5031791;28;20141;-63
2022/10/03 08:06:44;;;;;;;6.28;1.88;;;18.10;99.90;;;;;;4953155;29;20051;-64
2022/10/03 08:09:37;;;;;;;11.20;2.13;;;17.90;99.90;;;;;;4953257;29;20426;-63
2022/10/03 08:12:19;;;;;;;5.28;1.08;;;18.30;99.90;;;;;;4953579;29;20058;-63
2022/10/03 08:15:03;;;;;;;9.45;1.75;;;18.40;99.90;;;;;;4953360;29;20117;-63
2022/10/03 08:17:56;;;;;;;8.80;1.95;;;18.60;99.90;;;;;;4953372;29;20121;-64
2022/10/03 08:20:33;;;;;;;8.38;1.65;;;18.50;99.90;;;;;;4952528;29;20559;-63
2022/10/03 08:23:23;;;;;;;11.88;2.35;;;18.40;99.90;;;;;;4953239;29;20122;-63
2022/10/03 08:26:07;;;;;;;18.02;2.00;;;18.80;99.90;;;;;;4937534;29;20055;-63
2022/10/03 08:29:00;;;;;;;8.05;1.92;;;18.80;99.90;;;;;;4953038;29;20486;-64
2022/10/03 08:32:02;;;;;;;13.43;3.15;;;19.00;99.90;;;;;;4952986;29;20160;-64
2022/10/03 08:34:46;;;;;;;7.03;1.40;;;19.40;99.90;;;;;;4953064;29;20075;-63
2022/10/03 08:37:33;;;;;;;6.50;1.67;;;19.30;99.90;;;;;;4962637;28;20050;-63
2022/10/03 08:40:14;;;;;;;10.75;2.75;;;19.40;99.90;;;;;;5011409;28;20484;-63
2022/10/03 08:42:54;;;;;;;5.38;1.60;;;19.30;99.90;;;;;;5017231;28;20529;-63
2022/10/03 08:45:44;;;;;;;9.77;2.78;;;19.40;99.90;;;;;;5076334;28;20123;-63
2022/10/03 08:48:15;;;;;;;8.35;1.30;;;19.50;99.90;;;;;;5076733;28;20119;-63
2022/10/03 08:51:16;;;;;;;10.05;1.50;;;19.60;99.90;;;;;;5076281;28;20052;-63
2022/10/03 08:54:13;;;;;;;7.63;1.60;;;19.80;99.90;;;;;;5076692;28;20068;-63
2022/10/03 08:57:08;;;;;;;9.10;1.98;;;19.50;99.90;;;;;;5076559;28;20354;-63
2022/10/03 09:00:12;;;;;;;5.85;1.73;;;19.60;99.90;;;;;;5076467;28;20129;-63
2022/10/03 09:02:49;;;;;;;4.85;1.23;;;19.70;99.90;;;;;;5076511;28;20041;-63
2022/10/03 09:05:32;;;;;;;6.85;1.35;;;19.40;99.90;;;;;;5076108;28;20062;-63
2022/10/03 09:08:40;;;;;;;8.18;2.05;;;19.30;99.90;;;;;;5076345;28;20083;-63
2022/10/03 09:11:17;;;;;;;9.52;2.00;;;18.90;99.90;;;;;;5076338;28;20044;-64
2022/10/03 09:14:02;;;;;;;8.80;1.55;;;18.70;99.90;;;;;;5075978;28;20036;-64
2022/10/03 09:16:47;;;;;;;9.93;1.70;;;18.60;99.90;;;;;;5076088;28;20510;-63
2022/10/03 09:19:34;;;;;;;6.28;1.60;;;18.30;99.90;;;;;;5076193;28;20044;-64
2022/10/03 09:22:33;;;;;;;8.52;1.33;;;18.20;99.90;;;;;;5076086;28;20120;-64
2022/10/03 09:25:23;;;;;;;8.80;1.38;;;18.00;99.90;;;;;;5076066;28;20040;-64
2022/10/03 09:28:26;;;;;;;9.25;2.35;;;18.00;99.90;;;;;;5075876;28;20040;-64
2022/10/03 09:31:12;;;;;;;8.05;1.52;;;17.70;99.90;;;;;;5075808;28;20490;-64
2022/10/03 09:33:59;;;;;;;5.18;1.38;;;17.60;99.90;;;;;;5075988;28;20413;-64
2022/10/03 09:36:52;;;;;;;5.65;1.13;;;17.50;99.90;;;;;;5075742;28;20041;-64
2022/10/03 09:39:52;;;;;;;9.20;1.73;;;17.40;99.90;;;;;;5075640;28;20033;-64
2022/10/03 09:42:27;;;;;;;6.47;1.92;;;17.30;99.90;;;;;;5075779;28;20041;-64
2022/10/03 09:45:16;;;;;;;7.45;1.33;;;17.20;99.90;;;;;;5075709;28;20162;-64
2022/10/03 09:48:23;;;;;;;7.20;1.00;;;17.10;99.90;;;;;;5075617;28;20172;-64
2022/10/03 09:51:14;;;;;;;6.60;1.15;;;17.10;99.90;;;;;;5033263;28;20041;-63
2022/10/03 09:54:06;;;;;;;5.45;1.20;;;17.10;99.90;;;;;;5033361;28;20041;-65
2022/10/03 09:56:43;;;;;;;8.57;1.17;;;17.10;99.90;;;;;;5032165;28;20551;-64
2022/10/03 09:59:42;;;;;;;6.72;1.15;;;17.00;99.90;;;;;;5033335;28;20077;-64
2022/10/03 10:02:55;;;;;;;6.40;1.15;;;17.00;99.90;;;;;;5033297;28;20069;-65
2022/10/03 10:06:13;;;;;;;8.02;1.52;;;17.10;99.90;;;;;;4955642;29;20043;-65
2022/10/03 10:09:11;;;;;;;7.32;1.17;;;17.00;99.90;;;;;;4916507;29;20131;-65
2022/10/03 10:11:59;;;;;;;9.38;1.88;;;17.10;99.90;;;;;;4901129;29;20104;-65
2022/10/03 10:15:02;;;;;;;5.30;0.98;;;17.10;99.90;;;;;;4916728;29;20547;-66
2022/10/03 10:17:59;;;;;;;6.28;1.17;;;17.10;99.90;;;;;;4916667;29;20099;-65
2022/10/03 10:20:36;;;;;;;7.47;1.70;;;17.10;99.90;;;;;;4916648;29;20067;-65
2022/10/03 10:23:09;;;;;;;6.30;1.25;;;17.10;99.90;;;;;;4917030;29;20043;-65
2022/10/03 10:25:55;;;;;;;7.05;1.38;;;17.10;99.90;;;;;;4916504;29;20048;-65
2022/10/03 10:29:01;;;;;;;5.57;1.33;;;17.20;99.90;;;;;;4933592;29;20055;-64
2022/10/03 10:32:13;;;;;;;6.57;1.35;;;17.20;99.90;;;;;;4935338;29;20048;-65
2022/10/03 10:35:09;;;;;;;9.07;1.40;;;17.30;99.90;;;;;;4935446;29;20431;-65
2022/10/03 10:38:16;;;;;;;5.68;1.08;;;17.30;99.90;;;;;;4919442;29;20060;-66
2022/10/03 10:41:21;;;;;;;5.38;1.17;;;17.30;99.90;;;;;;4990355;28;20050;-65
2022/10/03 10:44:09;;;;;;;5.13;1.17;;;17.20;99.90;;;;;;5018540;28;20056;-65
2022/10/03 10:46:55;;;;;;;8.90;1.75;;;17.20;99.90;;;;;;5074402;28;20123;-65
2022/10/03 10:49:59;;;;;;;5.30;1.25;;;17.20;99.90;;;;;;5074284;28;20506;-65
2022/10/03 10:52:43;;;;;;;9.73;1.63;;;17.30;99.90;;;;;;5074179;28;20041;-65
2022/10/03 10:55:46;;;;;;;6.55;1.20;;;17.40;99.90;;;;;;5074250;28;20089;-66
2022/10/03 10:58:48;;;;;;;8.20;1.30;;;17.40;99.90;;;;;;5073965;28;20507;-65
2022/10/03 11:01:56;;;;;;;6.93;1.50;;;17.40;99.90;;;;;;5073453;28;20047;-65
2022/10/03 11:04:59;;;;;;;6.13;1.55;;;17.40;99.90;;;;;;5073820;28;20495;-65
2022/10/03 11:07:57;;;;;;;9.82;1.05;;;17.40;99.90;;;;;;5073596;28;20468;-65
2022/10/03 11:10:56;;;;;;;3.78;0.90;;;17.50;99.90;;;;;;5074471;28;20036;-65
2022/10/03 11:13:59;;;;;;;8.98;1.40;;;17.60;99.90;;;;;;5074285;28;20072;-65
2022/10/03 11:16:34;;;;;;;6.13;0.95;;;17.70;99.90;;;;;;5073911;28;20048;-65
2022/10/03 11:18:59;;;;;;;8.88;1.90;;;18.00;99.90;;;;;;5073945;28;20048;-65
2022/10/03 11:21:33;;;;;;;8.95;1.55;;;18.10;99.90;;;;;;5073894;28;20056;-65
2022/10/03 11:24:20;;;;;;;6.85;1.30;;;18.00;99.90;;;;;;5073898;28;20051;-65
2022/10/03 11:27:06;;;;;;;6.10;1.10;;;17.90;99.90;;;;;;5073882;28;20052;-65
2022/10/03 11:30:01;;;;;;;10.30;1.48;;;17.80;99.90;;;;;;5073767;28;20056;-66
2022/10/03 11:33:01;;;;;;;3.78;1.20;;;17.70;99.90;;;;;;5073827;28;20037;-65
2022/10/03 11:35:56;;;;;;;7.40;1.25;;;17.80;99.90;;;;;;5072341;28;20040;-66
2022/10/03 11:38:29;;;;;;;7.22;1.50;;;17.80;99.90;;;;;;5031358;28;20053;-65
2022/10/03 11:41:28;;;;;;;4.22;1.00;;;17.80;99.90;;;;;;5031702;28;20041;-66
2022/10/03 11:44:12;;;;;;;9.13;1.95;;;17.80;99.90;;;;;;5015254;28;20064;-66
2022/10/03 11:47:14;;;;;;;4.93;1.10;;;17.90;99.90;;;;;;5031522;28;20037;-65
2022/10/03 11:50:03;;;;;;;7.25;1.48;;;17.90;99.90;;;;;;5031497;28;20049;-65
2022/10/03 11:52:32;;;;;;;6.97;1.13;;;17.80;99.90;;;;;;5029982;28;20040;-65
2022/10/03 11:55:12;;;;;;;8.10;1.15;;;17.90;99.90;;;;;;5028149;28;20045;-65
2022/10/03 11:57:42;;;;;;;3.78;1.27;;;17.90;99.90;;;;;;5031204;28;20437;-64
2022/10/03 12:00:20;;;;;;;4.85;1.30;;;18.10;99.90;;;;;;5031412;28;20053;-65
2022/10/03 12:02:59;;;;;;;6.68;1.45;;;18.20;99.90;;;;;;5031518;28;20179;-65
2022/10/03 12:05:34;;;;;;;6.80;0.98;;;18.30;99.90;;;;;;5031394;28;20057;-65
2022/10/03 12:11:20;;;;;;;9.02;1.40;;;18.50;99.90;;;;;;5031312;28;20395;-66
2022/10/03 12:14:09;;;;;;;4.80;1.08;;;18.50;99.90;;;;;;5033352;28;20045;-65
2022/10/03 12:16:56;;;;;;;5.15;1.00;;;18.40;99.90;;;;;;5052202;28;20037;-65
2022/10/03 12:19:43;;;;;;;5.18;1.33;;;18.30;99.90;;;;;;5055257;28;20080;-65
2022/10/03 12:22:11;;;;;;;3.38;0.80;;;18.20;99.90;;;;;;5073112;28;20063;-65
2022/10/03 12:24:42;;;;;;;7.05;1.10;;;18.20;99.90;;;;;;5077114;28;20564;-65
2022/10/03 12:27:29;;;;;;;6.32;1.10;;;18.20;99.90;;;;;;5075977;28;20048;-65
2022/10/03 12:30:01;;;;;;;10.23;1.63;;;18.20;99.90;;;;;;5077047;28;20406;-65
2022/10/03 12:32:58;;;;;;;3.17;0.98;;;18.10;99.90;;;;;;5077084;28;20040;-65
2022/10/03 12:35:39;;;;;;;7.20;1.23;;;18.10;99.90;;;;;;5076796;28;20044;-64
2022/10/03 12:38:11;;;;;;;5.00;1.35;;;18.10;99.90;;;;;;5076966;28;20391;-64
2022/10/03 12:40:42;;;;;;;3.50;0.93;;;18.00;99.90;;;;;;5076874;28;20036;-64
2022/10/03 12:43:26;;;;;;;4.53;1.10;;;18.10;99.90;;;;;;5076785;28;20041;-64
2022/10/03 12:46:11;;;;;;;6.20;1.15;;;18.10;99.90;;;;;;5076787;28;20120;-64
2022/10/03 12:48:41;;;;;;;4.75;1.20;;;18.20;99.90;;;;;;5076481;28;20522;-65
2022/10/03 12:51:17;;;;;;;4.63;1.20;;;18.40;99.90;;;;;;5076635;28;20044;-65
2022/10/03 12:53:49;;;;;;;4.47;1.10;;;18.40;99.90;;;;;;5076655;28;20059;-65
2022/10/03 12:56:15;;;;;;;5.93;0.90;;;18.30;99.90;;;;;;5076587;28;20045;-65
2022/10/03 12:59:02;;;;;;;5.07;1.05;;;18.20;99.90;;;;;;5076194;28;20067;-64
2022/10/03 13:01:46;;;;;;;3.10;1.00;;;18.20;99.90;;;;;;5075262;28;20040;-65
2022/10/03 13:04:39;;;;;;;5.45;1.20;;;18.20;99.90;;;;;;5076508;28;20036;-66
2022/10/03 13:07:32;;;;;;;6.75;0.95;;;18.20;99.90;;;;;;5076078;28;20049;-65
2022/10/03 13:10:41;;;;;;;8.13;1.35;;;18.10;99.90;;;;;;5076299;28;20044;-64
2022/10/03 13:13:24;;;;;;;4.13;0.80;;;18.20;99.90;;;;;;5054052;28;20044;-64
2022/10/03 13:16:12;;;;;;;8.68;1.40;;;18.10;99.90;;;;;;5054076;28;20122;-65
2022/10/03 13:18:52;;;;;;;3.95;1.00;;;18.10;99.90;;;;;;5054105;28;20122;-64
2022/10/03 13:21:46;;;;;;;3.00;0.88;;;18.30;99.90;;;;;;5053746;28;20086;-64
2022/10/03 13:24:15;;;;;;;6.88;0.80;;;18.30;99.90;;;;;;5053817;28;20553;-65
2022/10/03 13:26:49;;;;;;;7.22;1.38;;;18.30;99.90;;;;;;5053877;28;20076;-65
2022/10/03 13:29:32;;;;;;;6.20;1.48;;;18.20;99.90;;;;;;5053476;28;20071;-65
2022/10/03 13:32:20;;;;;;;6.35;1.83;;;18.20;99.90;;;;;;5053484;28;20037;-64
2022/10/03 13:35:57;;;;;;;7.90;2.15;;;18.10;99.90;;;;;;5053581;28;20580;-65
2022/10/03 13:38:16;;;;;;;4.53;1.10;;;18.00;99.90;;;;;;5053656;28;20052;-65
2022/10/03 13:40:50;;;;;;;10.73;1.10;;;17.90;99.90;;;;;;5053542;28;20080;-64
2022/10/03 13:43:24;;;;;;;5.72;0.80;;;17.90;99.90;;;;;;5053546;28;20399;-66
2022/10/03 13:45:55;;;;;;;7.85;1.83;;;18.00;99.90;;;;;;5053567;28;20509;-65
2022/10/03 13:48:25;;;;;;;4.70;0.90;;;18.00;99.90;;;;;;5053902;28;20053;-65
2022/10/03 13:51:13;;;;;;;5.93;1.20;;;18.00;99.90;;;;;;5075507;28;20407;-66
2022/10/03 13:53:55;;;;;;;4.65;1.27;;;18.00;99.90;;;;;;5075536;28;20094;-65
2022/10/03 13:56:47;;;;;;;5.60;1.50;;;18.00;99.90;;;;;;5075531;28;20094;-66
2022/10/03 13:59:34;;;;;;;7.15;0.80;;;17.90;99.90;;;;;;5075053;28;20060;-65
2022/10/03 14:02:27;;;;;;;5.53;1.10;;;17.90;99.90;;;;;;5075141;28;20053;-65
2022/10/03 14:05:21;;;;;;;4.72;1.35;;;17.90;99.90;;;;;;5075358;28;20051;-65
2022/10/03 14:08:06;;;;;;;7.15;1.25;;;17.80;99.90;;;;;;5074910;28;20116;-65
2022/10/03 14:10:48;;;;;;;5.75;1.17;;;17.80;99.90;;;;;;5075510;28;20038;-65
2022/10/03 14:13:38;;;;;;;4.15;1.27;;;17.70;99.90;;;;;;5073896;28;20037;-65
2022/10/03 14:16:29;;;;;;;5.40;1.08;;;17.60;99.90;;;;;;5074878;28;20041;-66
2022/10/03 14:19:16;;;;;;;8.82;1.60;;;17.60;99.90;;;;;;5075094;28;20041;-65
2022/10/03 14:21:50;;;;;;;3.83;1.10;;;17.60;99.90;;;;;;5074318;28;20048;-65
2022/10/03 14:24:54;;;;;;;4.38;0.80;;;17.60;99.90;;;;;;5073769;28;20178;-66
2022/10/03 14:27:23;;;;;;;4.22;1.13;;;17.50;99.90;;;;;;5052088;28;20538;-65
2022/10/03 14:29:57;;;;;;;4.10;0.73;;;17.50;99.90;;;;;;5052768;28;20037;-65
2022/10/03 14:32:30;;;;;;;4.57;1.02;;;17.50;99.90;;;;;;5052408;28;20156;-65
2022/10/03 14:35:06;;;;;;;4.70;0.90;;;17.50;99.90;;;;;;5052473;28;20045;-65
2022/10/03 14:37:31;;;;;;;3.25;1.02;;;17.40;99.90;;;;;;5052344;28;20391;-63